createdAt,value
2018-04-15T00:01:07.699Z,7.20
2018-04-15T00:03:35.104Z,3.27
2018-04-15T00:06:01.790Z,3.20
2018-04-15T00:08:29.238Z,4.00
2018-04-15T00:10:55.952Z,2.43
2018-04-15T00:13:22.604Z,3.27
2018-04-15T00:15:49.515Z,5.10
2018-04-15T00:18:16.196Z,4.07
2018-04-15T00:20:43.688Z,2.17
2018-04-15T00:23:10.318Z,3.27
2018-04-15T00:25:37.702Z,2.57
2018-04-15T00:28:04.366Z,2.90
2018-04-15T00:30:31.091Z,1.90
2018-04-15T00:32:57.739Z,1.90
2018-04-15T00:35:24.505Z,2.00
2018-04-15T00:37:51.131Z,1.70
2018-04-15T00:40:17.859Z,1.80
2018-04-15T00:42:44.527Z,2.90
2018-04-15T00:45:11.273Z,1.57
2018-04-15T00:47:37.920Z,3.03
2018-04-15T00:50:04.623Z,3.13
2018-04-15T00:52:31.288Z,1.47
2018-04-15T00:54:58.130Z,1.47
2018-04-15T00:57:25.008Z,1.30
2018-04-15T00:59:52.416Z,1.43
2018-04-15T01:02:19.081Z,1.87
2018-04-15T01:04:45.780Z,3.33
2018-04-15T01:07:12.566Z,2.90
2018-04-15T01:09:39.267Z,2.63
2018-04-15T01:12:05.967Z,3.23
2018-04-15T01:14:33.407Z,2.50
2018-04-15T01:17:00.826Z,1.83
2018-04-15T01:19:27.507Z,1.30
2018-04-15T01:21:54.161Z,1.70
2018-04-15T01:24:21.004Z,2.03
2018-04-15T01:26:49.659Z,1.70
2018-04-15T01:29:16.323Z,1.43
2018-04-15T01:31:43.684Z,2.33
2018-04-15T01:34:11.348Z,1.93
2018-04-15T01:36:38.088Z,1.90
2018-04-15T01:39:05.547Z,3.03
2018-04-15T01:41:32.247Z,1.73
2018-04-15T01:43:58.842Z,1.90
2018-04-15T01:46:25.509Z,1.97
2018-04-15T01:48:52.186Z,2.17
2018-04-15T01:51:18.919Z,2.70
2018-04-15T01:53:45.570Z,1.13
2018-04-15T01:56:12.547Z,1.80
2018-04-15T01:58:39.380Z,1.47
2018-04-15T02:01:07.046Z,1.27
2018-04-15T02:03:33.991Z,3.10
2018-04-15T02:06:01.562Z,1.43
2018-04-15T02:08:28.409Z,1.70
2018-04-15T02:10:55.343Z,5.40
2018-04-15T02:13:22.287Z,1.90
2018-04-15T02:15:49.131Z,2.10
2018-04-15T02:18:17.717Z,1.87
2018-04-15T02:20:44.664Z,2.50
2018-04-15T02:23:12.326Z,1.50
2018-04-15T02:25:40.408Z,1.87
2018-04-15T02:28:07.350Z,2.57
2018-04-15T02:30:35.007Z,1.57
2018-04-15T02:33:09.740Z,2.07
2018-04-15T02:35:36.792Z,3.03
2018-04-15T02:38:04.660Z,1.50
2018-04-15T02:40:31.701Z,1.50
2018-04-15T02:43:01.518Z,1.23
2018-04-15T02:45:28.460Z,1.87
2018-04-15T02:47:55.305Z,1.20
2018-04-15T02:50:24.300Z,1.10
2018-04-15T02:52:51.872Z,1.70
2018-04-15T02:55:19.830Z,1.40
2018-04-15T02:57:46.690Z,1.10
2018-04-15T03:00:14.654Z,1.30
2018-04-15T03:02:41.604Z,1.57
2018-04-15T03:05:08.438Z,1.20
2018-04-15T03:07:35.385Z,1.30
2018-04-15T03:10:15.442Z,1.10
2018-04-15T03:12:42.282Z,1.23
2018-04-15T03:15:09.238Z,1.87
2018-04-15T03:17:36.071Z,1.20
2018-04-15T03:20:03.964Z,1.53
2018-04-15T03:22:30.881Z,1.27
2018-04-15T03:24:57.828Z,2.00
2018-04-15T03:27:25.386Z,2.83
2018-04-15T03:29:52.335Z,1.60
2018-04-15T03:32:19.893Z,2.63
2018-04-15T03:34:46.738Z,1.40
2018-04-15T03:37:13.475Z,2.17
2018-04-15T03:39:40.425Z,1.13
2018-04-15T03:42:07.371Z,5.30
2018-04-15T03:44:34.932Z,1.90
2018-04-15T03:47:02.610Z,1.20
2018-04-15T03:49:30.261Z,2.43
2018-04-15T03:51:57.209Z,1.17
2018-04-15T03:54:24.253Z,1.60
2018-04-15T03:56:51.200Z,2.40
2018-04-15T03:59:18.864Z,1.30
2018-04-15T04:01:45.910Z,1.73
2018-04-15T04:04:13.678Z,1.80
2018-04-15T04:06:40.520Z,2.73
2018-04-15T04:09:08.182Z,3.63
2018-04-15T04:11:35.847Z,2.47
2018-04-15T04:14:02.589Z,2.63
2018-04-15T04:16:30.250Z,1.63
2018-04-15T04:19:10.304Z,1.60
2018-04-15T04:21:49.435Z,1.27
2018-04-15T04:24:29.495Z,2.80
2018-04-15T04:26:56.339Z,2.90
2018-04-15T04:29:23.285Z,2.70
2018-04-15T04:31:50.020Z,4.03
2018-04-15T04:34:17.583Z,2.37
2018-04-15T04:36:46.268Z,2.23
2018-04-15T04:39:13.112Z,2.60
2018-04-15T04:41:39.956Z,1.60
2018-04-15T04:44:06.799Z,2.87
2018-04-15T04:46:33.746Z,1.63
2018-04-15T04:49:00.694Z,3.20
2018-04-15T04:51:27.539Z,3.83
2018-04-15T04:53:54.583Z,2.13
2018-04-15T04:56:22.247Z,1.27
2018-04-15T04:58:49.807Z,1.60
2018-04-15T05:01:16.754Z,2.30
2018-04-15T05:03:43.699Z,3.17
2018-04-15T05:06:10.458Z,3.30
2018-04-15T05:08:37.491Z,2.10
2018-04-15T05:11:04.440Z,1.60
2018-04-15T05:13:31.997Z,2.17
2018-04-15T05:15:58.844Z,1.90
2018-04-15T05:18:26.405Z,2.37
2018-04-15T05:20:53.346Z,2.10
2018-04-15T05:23:21.125Z,1.67
2018-04-15T05:25:48.058Z,1.60
2018-04-15T05:28:15.005Z,3.00
2018-04-15T05:30:42.477Z,1.73
2018-04-15T05:33:09.306Z,2.07
2018-04-15T05:35:36.253Z,1.63
2018-04-15T05:38:03.305Z,1.77
2018-04-15T05:40:30.250Z,4.23
2018-04-15T05:42:57.091Z,1.53
2018-04-15T05:45:24.039Z,2.30
2018-04-15T05:47:50.814Z,4.30
2018-04-15T05:50:17.731Z,4.53
2018-04-15T05:52:44.572Z,3.20
2018-04-15T05:55:11.520Z,7.23
2018-04-15T05:57:39.178Z,6.07
2018-04-15T06:00:05.938Z,5.57
2018-04-15T06:02:32.865Z,4.27
2018-04-15T06:04:59.815Z,4.50
2018-04-15T06:07:26.858Z,4.40
2018-04-15T06:09:53.805Z,4.93
2018-04-15T06:12:20.753Z,7.87
2018-04-15T06:14:47.596Z,8.47
2018-04-15T06:17:15.261Z,6.13
2018-04-15T06:19:43.852Z,5.87
2018-04-15T06:22:10.800Z,8.23
2018-04-15T06:24:37.805Z,8.03
2018-04-15T06:27:04.685Z,5.97
2018-04-15T06:29:31.526Z,4.33
2018-04-15T06:31:59.087Z,4.53
2018-04-15T06:34:26.033Z,6.83
2018-04-15T06:36:53.014Z,10.13
2018-04-15T06:39:19.923Z,6.27
2018-04-15T06:41:47.587Z,5.83
2018-04-15T06:44:14.431Z,6.27
2018-04-15T06:46:41.177Z,4.10
2018-04-15T06:49:08.221Z,4.57
2018-04-15T06:51:35.679Z,4.13
2018-04-15T06:54:03.342Z,4.37
2018-04-15T06:56:31.007Z,4.87
2018-04-15T06:58:58.674Z,7.00
2018-04-15T07:01:25.511Z,7.07
2018-04-15T07:03:52.253Z,5.20
2018-04-15T07:06:19.916Z,5.30
2018-04-15T07:08:46.760Z,6.00
2018-04-15T07:11:13.705Z,6.00
2018-04-15T07:13:41.267Z,8.87
2018-04-15T07:16:08.314Z,4.57
2018-04-15T07:18:35.779Z,6.67
2018-04-15T07:21:02.480Z,6.30
2018-04-15T07:23:29.461Z,5.73
2018-04-15T07:25:56.304Z,5.60
2018-04-15T07:28:23.967Z,6.10
2018-04-15T07:30:51.530Z,6.57
2018-04-15T07:33:18.472Z,5.17
2018-04-15T07:35:46.239Z,6.27
2018-04-15T07:38:13.192Z,7.03
2018-04-15T07:40:40.131Z,6.07
2018-04-15T07:43:11.629Z,5.17
2018-04-15T07:45:38.533Z,6.10
2018-04-15T07:48:06.193Z,5.27
2018-04-15T07:50:33.757Z,3.93
2018-04-15T07:53:01.519Z,4.20
2018-04-15T07:55:28.978Z,4.30
2018-04-15T07:57:56.539Z,5.60
2018-04-15T08:00:24.201Z,4.13
2018-04-15T08:02:51.761Z,4.27
2018-04-15T08:05:22.599Z,4.90
2018-04-15T08:07:49.445Z,5.03
2018-04-15T08:10:16.285Z,4.57
2018-04-15T08:12:43.777Z,4.43
2018-04-15T08:15:10.607Z,7.63
2018-04-15T08:17:37.535Z,5.63
2018-04-15T08:20:04.482Z,3.63
2018-04-15T08:22:31.945Z,6.70
2018-04-15T08:24:58.885Z,4.50
2018-04-15T08:27:25.831Z,4.40
2018-04-15T08:29:53.392Z,6.87
2018-04-15T08:32:20.308Z,4.70
2018-04-15T08:34:47.184Z,4.97
2018-04-15T08:37:14.130Z,5.23
2018-04-15T08:39:41.074Z,4.20
2018-04-15T08:42:07.923Z,3.20
2018-04-15T08:44:34.762Z,4.17
2018-04-15T08:47:01.607Z,4.20
2018-04-15T08:49:28.554Z,3.83
2018-04-15T08:51:55.399Z,5.77
2018-04-15T08:54:22.341Z,3.97
2018-04-15T08:56:50.007Z,5.07
2018-04-15T08:59:17.668Z,5.80
2018-04-15T09:01:46.254Z,4.67
2018-04-15T09:04:12.998Z,4.10
2018-04-15T09:06:40.247Z,4.80
2018-04-15T09:09:07.012Z,4.53
2018-04-15T09:11:34.143Z,5.37
2018-04-15T09:14:01.087Z,4.00
2018-04-15T09:16:27.929Z,8.63
2018-04-15T09:18:55.696Z,5.93
2018-04-15T09:21:22.539Z,5.53
2018-04-15T09:23:49.383Z,6.37
2018-04-15T09:26:16.227Z,5.90
2018-04-15T09:28:43.173Z,4.57
2018-04-15T09:31:11.970Z,6.13
2018-04-15T09:33:38.909Z,4.20
2018-04-15T09:36:05.660Z,4.70
2018-04-15T09:38:32.598Z,5.20
2018-04-15T09:40:59.549Z,4.63
2018-04-15T09:43:26.391Z,6.03
2018-04-15T09:45:53.332Z,3.70
2018-04-15T09:48:20.276Z,3.47
2018-04-15T09:50:47.017Z,5.73
2018-04-15T09:53:14.600Z,4.30
2018-04-15T09:55:41.437Z,5.93
2018-04-15T09:58:08.369Z,6.20
2018-04-15T10:00:35.930Z,3.53
2018-04-15T10:03:03.492Z,4.27
2018-04-15T10:05:31.255Z,6.43
2018-04-15T10:07:58.817Z,5.23
2018-04-15T10:10:25.766Z,5.83
2018-04-15T10:12:52.504Z,2.90
2018-04-15T10:15:19.353Z,5.87
2018-04-15T10:17:46.089Z,4.70
2018-04-15T10:20:13.036Z,3.97
2018-04-15T10:22:40.698Z,4.60
2018-04-15T10:25:08.367Z,4.27
2018-04-15T10:27:35.316Z,8.50
2018-04-15T10:30:02.255Z,4.03
2018-04-15T10:32:29.105Z,5.20
2018-04-15T10:34:56.044Z,6.43
2018-04-15T10:37:23.707Z,5.40
2018-04-15T10:39:50.761Z,8.40
2018-04-15T10:42:17.513Z,5.73
2018-04-15T10:44:44.447Z,4.10
2018-04-15T10:47:11.291Z,4.90
2018-04-15T10:49:38.240Z,7.60
2018-04-15T10:52:05.185Z,5.00
2018-04-15T10:54:32.127Z,5.57
2018-04-15T10:56:59.895Z,3.87
2018-04-15T10:59:26.842Z,5.57
2018-04-15T11:01:54.401Z,5.97
2018-04-15T11:04:21.346Z,7.53
2018-04-15T11:06:48.191Z,5.97
2018-04-15T11:09:19.847Z,6.60
2018-04-15T11:11:47.509Z,6.77
2018-04-15T11:14:14.253Z,5.43
2018-04-15T11:16:41.300Z,5.33
2018-04-15T11:19:08.963Z,5.23
2018-04-15T11:21:36.115Z,5.80
2018-04-15T11:24:02.957Z,5.83
2018-04-15T11:26:29.824Z,5.20
2018-04-15T11:28:56.709Z,6.03
2018-04-15T11:31:23.594Z,5.10
2018-04-15T11:33:50.540Z,4.13
2018-04-15T11:36:17.485Z,6.10
2018-04-15T11:38:44.326Z,4.77
2018-04-15T11:41:11.376Z,3.83
2018-04-15T11:43:38.228Z,5.80
2018-04-15T11:46:05.169Z,4.63
2018-04-15T11:48:32.009Z,3.80
2018-04-15T11:50:58.956Z,6.63
2018-04-15T11:53:25.823Z,6.63
2018-04-15T11:55:52.848Z,4.57
2018-04-15T11:58:19.798Z,4.50
2018-04-15T12:00:46.650Z,4.37
2018-04-15T12:03:13.585Z,7.33
2018-04-15T12:05:40.532Z,5.37
2018-04-15T12:08:07.375Z,3.77
2018-04-15T12:10:38.115Z,4.93
2018-04-15T12:13:05.055Z,3.83
2018-04-15T12:15:32.725Z,5.47
2018-04-15T12:17:59.665Z,4.77
2018-04-15T12:20:26.718Z,4.97
2018-04-15T12:22:53.660Z,4.80
2018-04-15T12:25:20.708Z,5.07
2018-04-15T12:27:52.570Z,5.73
2018-04-15T12:30:19.519Z,4.30
2018-04-15T12:32:46.464Z,4.37
2018-04-15T12:35:13.246Z,2.93
2018-04-15T12:37:40.159Z,4.27
2018-04-15T12:40:08.122Z,3.77
2018-04-15T12:42:34.971Z,5.03
2018-04-15T12:45:02.018Z,4.27
2018-04-15T12:47:29.166Z,4.57
2018-04-15T12:49:56.114Z,5.17
2018-04-15T12:52:22.854Z,3.27
2018-04-15T12:54:49.696Z,4.37
2018-04-15T12:57:17.359Z,3.07
2018-04-15T12:59:45.125Z,3.77
2018-04-15T13:02:12.787Z,5.20
2018-04-15T13:04:40.354Z,3.70
2018-04-15T13:07:07.298Z,3.90
2018-04-15T13:09:34.248Z,3.77
2018-04-15T13:12:05.077Z,3.67
2018-04-15T13:14:32.126Z,3.07
2018-04-15T13:16:59.315Z,3.47
2018-04-15T13:19:26.227Z,4.20
2018-04-15T13:21:53.170Z,4.17
2018-04-15T13:24:20.120Z,4.63
2018-04-15T13:26:47.060Z,5.30
2018-04-15T13:29:14.723Z,5.50
2018-04-15T13:31:41.569Z,5.87
2018-04-15T13:34:09.231Z,4.23
2018-04-15T13:36:36.893Z,5.00
2018-04-15T13:39:05.786Z,3.73
2018-04-15T13:41:33.448Z,9.67
2018-04-15T13:44:01.111Z,11.20
2018-04-15T13:46:28.057Z,5.17
2018-04-15T13:48:55.111Z,4.50
2018-04-15T13:51:22.053Z,4.17
2018-04-15T13:53:49.722Z,4.67
2018-04-15T13:56:16.661Z,3.97
2018-04-15T13:58:43.622Z,4.53
2018-04-15T14:01:10.666Z,4.03
2018-04-15T14:03:37.508Z,4.67
2018-04-15T14:06:05.162Z,6.07
2018-04-15T14:08:32.108Z,7.13
2018-04-15T14:10:59.053Z,3.73
2018-04-15T14:13:26.008Z,6.23
2018-04-15T14:15:52.948Z,5.33
2018-04-15T14:18:20.021Z,9.10
2018-04-15T14:20:47.438Z,5.63
2018-04-15T14:23:14.506Z,3.83
2018-04-15T14:25:41.551Z,5.57
2018-04-15T14:28:08.410Z,5.03
2018-04-15T14:30:35.442Z,6.67
2018-04-15T14:33:02.311Z,3.47
2018-04-15T14:35:29.336Z,4.90
2018-04-15T14:37:56.391Z,4.37
2018-04-15T14:40:23.235Z,7.03
2018-04-15T14:42:50.072Z,4.47
2018-04-15T14:45:17.128Z,4.83
2018-04-15T14:47:44.167Z,5.70
2018-04-15T14:50:11.852Z,4.33
2018-04-15T14:52:38.787Z,4.87
2018-04-15T14:55:05.728Z,5.17
2018-04-15T14:57:32.580Z,4.60
2018-04-15T14:59:59.620Z,3.90
2018-04-15T15:02:26.665Z,5.07
2018-04-15T15:04:53.532Z,5.23
2018-04-15T15:07:20.460Z,3.83
2018-04-15T15:09:48.224Z,6.77
2018-04-15T15:12:15.171Z,15.07
2018-04-15T15:14:42.929Z,7.90
2018-04-15T15:17:10.082Z,2.97
2018-04-15T15:19:37.147Z,5.93
2018-04-15T15:22:04.188Z,4.43
2018-04-15T15:24:31.228Z,3.80
2018-04-15T15:26:58.007Z,4.07
2018-04-15T15:29:25.426Z,7.20
2018-04-15T15:31:53.190Z,3.77
2018-04-15T15:34:20.342Z,5.07
2018-04-15T15:36:47.391Z,2.60
2018-04-15T15:39:14.447Z,3.30
2018-04-15T15:41:41.389Z,4.57
2018-04-15T15:44:08.848Z,2.90
2018-04-15T15:46:36.726Z,3.97
2018-04-15T15:49:03.760Z,4.40
2018-04-15T15:51:31.340Z,5.03
2018-04-15T15:53:58.267Z,3.70
2018-04-15T15:56:25.324Z,3.13
2018-04-15T15:58:52.363Z,3.60
2018-04-15T16:01:19.269Z,3.60
2018-04-15T16:03:46.869Z,3.20
2018-04-15T16:06:14.640Z,3.83
2018-04-15T16:08:41.786Z,5.83
2018-04-15T16:11:09.040Z,4.13
2018-04-15T16:13:36.191Z,5.27
2018-04-15T16:16:03.136Z,3.80
2018-04-15T16:18:30.194Z,6.90
2018-04-15T16:20:57.246Z,4.10
2018-04-15T16:23:24.487Z,4.00
2018-04-15T16:25:52.252Z,4.53
2018-04-15T16:28:19.507Z,3.03
2018-04-15T16:30:46.453Z,3.97
2018-04-15T16:33:13.501Z,5.43
2018-04-15T16:35:40.653Z,6.30
2018-04-15T16:38:08.212Z,13.13
2018-04-15T16:40:35.056Z,19.13
2018-04-15T16:43:02.105Z,9.40
2018-04-15T16:45:29.666Z,7.43
2018-04-15T16:47:56.799Z,4.63
2018-04-15T16:50:23.967Z,4.97
2018-04-15T16:52:51.079Z,4.60
2018-04-15T16:55:18.070Z,4.40
2018-04-15T16:57:45.427Z,4.17
2018-04-15T17:00:12.436Z,5.17
2018-04-15T17:02:39.615Z,4.47
2018-04-15T17:05:06.771Z,3.97
2018-04-15T17:07:33.937Z,3.80
2018-04-15T17:10:01.788Z,3.50
2018-04-15T17:12:28.748Z,6.73
2018-04-15T17:14:55.784Z,10.20
2018-04-15T17:17:23.872Z,7.83
2018-04-15T17:19:50.904Z,6.50
2018-04-15T17:22:17.865Z,7.77
2018-04-15T17:24:44.806Z,3.47
2018-04-15T17:27:11.752Z,4.47
2018-04-15T17:32:36.226Z,4.33
2018-04-15T17:35:03.073Z,4.33
2018-04-15T17:37:29.628Z,5.63
2018-04-15T17:39:56.144Z,4.80
2018-04-15T17:42:22.626Z,3.67
2018-04-15T17:44:49.185Z,2.80
2018-04-15T17:47:15.718Z,2.50
2018-04-15T17:49:42.242Z,4.13
2018-04-15T17:52:09.492Z,2.80
2018-04-15T17:54:36.832Z,2.53
2018-04-15T17:57:03.344Z,2.07
2018-04-15T17:59:29.828Z,3.60
2018-04-15T18:01:56.455Z,4.40
2018-04-15T18:04:22.896Z,3.47
2018-04-15T18:06:50.116Z,2.10
2018-04-15T18:09:16.607Z,2.00
2018-04-15T18:11:43.133Z,1.80
2018-04-15T18:14:09.690Z,1.50
2018-04-15T18:16:36.236Z,2.00
2018-04-15T18:19:02.787Z,1.30
2018-04-15T18:21:29.284Z,1.90
2018-04-15T18:23:55.817Z,2.27
2018-04-15T18:26:22.421Z,6.40
2018-04-15T18:28:49.744Z,2.43
2018-04-15T18:31:16.241Z,3.50
2018-04-15T18:33:43.485Z,4.07
2018-04-15T18:36:11.739Z,3.13
2018-04-15T18:38:38.228Z,2.97
2018-04-15T18:41:04.751Z,1.97
2018-04-15T18:43:31.299Z,2.90
2018-04-15T18:45:57.809Z,1.50
2018-04-15T18:48:25.053Z,2.43
2018-04-15T18:50:51.542Z,2.00
2018-04-15T18:53:18.050Z,1.60
2018-04-15T18:55:44.565Z,2.63
2018-04-15T18:58:11.876Z,1.90
2018-04-15T19:00:38.334Z,3.50
2018-04-15T19:03:04.822Z,1.83
2018-04-15T19:05:31.292Z,3.20
2018-04-15T19:07:57.883Z,1.97
2018-04-15T19:10:24.405Z,2.13
2018-04-15T19:12:50.887Z,5.83
2018-04-15T19:15:17.348Z,2.47
2018-04-15T19:17:44.063Z,2.20
2018-04-15T19:20:10.603Z,3.43
2018-04-15T19:22:37.160Z,2.63
2018-04-15T19:25:03.647Z,2.60
2018-04-15T19:27:30.140Z,2.90
2018-04-15T19:29:56.588Z,3.30
2018-04-15T19:32:23.302Z,3.50
2018-04-15T19:34:49.735Z,2.23
2018-04-15T19:37:16.298Z,3.70
2018-04-15T19:39:43.480Z,2.90
2018-04-15T19:42:09.958Z,3.23
2018-04-15T19:44:39.678Z,4.33
2018-04-15T19:47:06.705Z,2.93
2018-04-15T19:49:33.205Z,3.13
2018-04-15T19:51:59.896Z,2.30
2018-04-15T19:54:26.328Z,2.43
2018-04-15T19:56:52.848Z,4.60
2018-04-15T19:59:19.323Z,2.20
2018-04-15T20:01:46.637Z,2.00
2018-04-15T20:04:13.150Z,3.00
2018-04-15T20:06:39.608Z,2.00
2018-04-15T20:09:06.105Z,2.87
2018-04-15T20:11:33.314Z,3.37
2018-04-15T20:13:59.856Z,2.33
2018-04-15T20:16:26.479Z,2.47
2018-04-15T20:18:53.025Z,1.87
2018-04-15T20:21:20.236Z,2.20
2018-04-15T20:23:46.725Z,2.87
2018-04-15T20:26:13.149Z,2.10
2018-04-15T20:28:39.604Z,2.30
2018-04-15T20:31:06.991Z,2.00
2018-04-15T20:33:33.437Z,3.00
2018-04-15T20:35:59.957Z,9.03
2018-04-15T20:38:26.463Z,6.23
2018-04-15T20:40:53.069Z,2.30
2018-04-15T20:43:19.826Z,2.60
2018-04-15T20:45:46.275Z,2.60
2018-04-15T20:48:12.780Z,3.00
2018-04-15T20:50:39.215Z,7.10
2018-04-15T20:53:05.722Z,2.30
2018-04-15T20:55:36.108Z,2.40
2018-04-15T20:58:02.584Z,1.67
2018-04-15T21:00:29.033Z,1.40
2018-04-15T21:02:55.541Z,2.10
2018-04-15T21:05:22.856Z,1.30
2018-04-15T21:07:50.210Z,1.50
2018-04-15T21:10:16.719Z,1.30
2018-04-15T21:12:43.197Z,2.00
2018-04-15T21:15:09.636Z,1.80
2018-04-15T21:17:37.920Z,1.53
2018-04-15T21:20:07.168Z,3.80
2018-04-15T21:22:33.661Z,1.63
2018-04-15T21:25:00.127Z,2.50
2018-04-15T21:27:26.642Z,4.03
2018-04-15T21:29:54.219Z,2.57
2018-04-15T21:32:20.801Z,2.10
2018-04-15T21:34:48.028Z,2.13
2018-04-15T21:37:14.536Z,1.20
2018-04-15T21:39:41.021Z,2.13
2018-04-15T21:42:07.508Z,1.40
2018-04-15T21:44:33.960Z,1.53
2018-04-15T21:47:00.458Z,1.57
2018-04-15T21:49:27.643Z,4.67
2018-04-15T21:51:54.087Z,1.57
2018-04-15T21:54:20.575Z,1.20
2018-04-15T21:56:47.799Z,1.13
2018-04-15T21:59:14.305Z,1.50
2018-04-15T22:01:40.812Z,1.50
2018-04-15T22:04:08.097Z,1.60
2018-04-15T22:06:34.551Z,1.43
2018-04-15T22:09:01.052Z,1.47
2018-04-15T22:11:39.729Z,1.70
2018-04-15T22:14:06.190Z,1.30
2018-04-15T22:16:37.310Z,6.60
2018-04-15T22:19:04.544Z,4.43
2018-04-15T22:21:31.008Z,3.90
2018-04-15T22:23:58.272Z,2.23
2018-04-15T22:26:25.496Z,2.97
2018-04-15T22:28:52.056Z,1.73
2018-04-15T22:31:18.496Z,1.67
2018-04-15T22:33:45.695Z,1.63
2018-04-15T22:36:12.136Z,1.83
2018-04-15T22:38:38.613Z,1.43
2018-04-15T22:41:05.789Z,1.40
2018-04-15T22:43:32.277Z,1.77
2018-04-15T22:45:58.705Z,0.90
2018-04-15T22:48:36.004Z,2.07
2018-04-15T22:51:02.464Z,1.00
2018-04-15T22:53:29.754Z,4.97
2018-04-15T22:55:56.253Z,12.30
2018-04-15T22:58:23.503Z,3.93
2018-04-15T23:00:50.701Z,5.40
2018-04-15T23:03:21.841Z,4.73
2018-04-15T23:05:48.279Z,3.40
2018-04-15T23:08:14.743Z,7.77
2018-04-15T23:10:41.975Z,7.57
2018-04-15T23:13:08.524Z,5.17
2018-04-15T23:15:35.007Z,3.47
2018-04-15T23:18:02.244Z,2.83
2018-04-15T23:20:28.693Z,3.27
2018-04-15T23:22:55.899Z,2.63
2018-04-15T23:25:22.356Z,1.70
2018-04-15T23:27:48.883Z,2.90
2018-04-15T23:30:15.344Z,2.50
2018-04-15T23:32:42.563Z,2.20
2018-04-15T23:35:09.776Z,3.47
2018-04-15T23:37:36.242Z,2.37
2018-04-15T23:40:02.723Z,1.73
2018-04-15T23:42:30.044Z,2.43
2018-04-15T23:44:56.469Z,1.30
2018-04-15T23:47:22.928Z,1.83
2018-04-15T23:49:49.334Z,1.23
2018-04-15T23:52:15.799Z,1.20
2018-04-15T23:54:42.220Z,1.13
2018-04-15T23:57:08.792Z,1.33
2018-04-15T23:59:35.984Z,1.80
